createdAt,value
2023-05-24T11:37:05.165Z,95052.00
2023-05-24T11:38:05.172Z,95060.00
2023-05-24T11:39:05.198Z,95066.00
2023-05-24T11:40:05.193Z,95072.00
2023-05-24T11:41:05.202Z,95074.00
2023-05-24T11:42:05.169Z,95084.00
2023-05-24T11:43:05.162Z,95084.00
2023-05-24T11:44:05.150Z,95088.00
2023-05-24T11:45:05.159Z,95084.00
2023-05-24T11:46:05.184Z,95086.00
2023-05-24T11:47:05.281Z,95088.00
2023-05-24T11:48:05.125Z,95092.00
2023-05-24T11:49:05.121Z,95092.00
2023-05-24T11:50:05.101Z,95096.00
2023-05-24T11:51:05.103Z,95096.00
2023-05-24T11:52:05.074Z,95098.00
2023-05-24T11:53:05.176Z,95098.00
2023-05-24T11:54:05.069Z,95099.00
2023-05-24T11:55:05.097Z,95101.00
2023-05-24T11:56:05.255Z,95101.00
2023-05-24T11:57:05.046Z,95105.00
2023-05-24T11:58:05.365Z,95105.00
2023-05-24T11:59:05.036Z,95107.00
2023-05-24T12:00:05.074Z,95109.00
2023-05-24T12:01:05.028Z,95107.00
2023-05-24T12:02:05.124Z,95109.00
2023-05-24T12:03:05.187Z,95107.00
2023-05-24T12:04:05.159Z,95111.00
2023-05-24T12:05:05.006Z,95109.00
2023-05-24T12:06:04.992Z,95107.00
2023-05-24T12:07:05.014Z,95109.00
2023-05-24T12:08:04.975Z,95111.00
2023-05-24T12:09:04.987Z,95109.00
2023-05-24T12:10:04.954Z,95107.00
2023-05-24T12:11:04.965Z,95109.00
2023-05-24T12:12:04.974Z,95109.00
2023-05-24T12:13:04.963Z,95105.00
2023-05-24T12:14:04.966Z,95107.00
2023-05-24T12:15:04.913Z,95105.00
2023-05-24T12:16:04.996Z,95107.00
2023-05-24T12:17:04.896Z,95107.00
2023-05-24T12:18:04.963Z,95107.00
2023-05-24T12:19:11.620Z,95107.00
2023-05-24T12:20:05.946Z,95107.00
2023-05-24T12:21:04.886Z,95107.00
2023-05-24T12:22:04.878Z,95109.00
2023-05-24T12:23:04.910Z,95111.00
2023-05-24T12:24:04.859Z,95111.00
2023-05-24T12:25:04.922Z,95111.00
2023-05-24T12:26:04.877Z,95113.00
2023-05-24T12:27:04.835Z,95115.00
2023-05-24T12:28:04.836Z,95115.00
2023-05-24T12:29:04.816Z,95121.00
2023-05-24T12:30:04.820Z,95119.00
2023-05-24T12:31:04.861Z,95115.00
2023-05-24T12:32:04.831Z,95117.00
2023-05-24T12:33:04.900Z,95121.00
2023-05-24T12:34:04.813Z,95121.00
2023-05-24T12:35:04.790Z,95119.00
2023-05-24T12:36:04.759Z,95121.00
2023-05-24T12:37:04.869Z,95125.00
2023-05-24T12:38:04.728Z,95129.00
2023-05-24T12:39:04.748Z,95131.00
2023-05-24T12:40:04.730Z,95129.00
2023-05-24T12:42:04.762Z,95131.00
2023-05-24T12:43:04.754Z,95133.00
2023-05-24T12:44:04.719Z,95137.00
2023-05-24T12:45:04.716Z,95135.00
2023-05-24T12:46:04.730Z,95135.00
2023-05-24T12:47:04.821Z,95137.00
2023-05-24T12:48:04.765Z,95139.00
2023-05-24T12:49:04.709Z,95143.00
2023-05-24T12:50:04.673Z,95145.00
2023-05-24T12:51:04.700Z,95143.00
2023-05-24T12:52:04.792Z,95143.00
2023-05-24T12:53:04.666Z,95143.00
2023-05-24T12:54:04.679Z,95143.00
2023-05-24T12:55:04.690Z,95143.00
2023-05-24T12:56:04.656Z,95143.00
2023-05-24T12:57:04.664Z,95145.00
2023-05-24T12:58:04.665Z,95141.00
2023-05-24T12:59:04.633Z,95143.00
2023-05-24T13:00:04.639Z,95139.00
2023-05-24T13:01:11.623Z,95145.00
2023-05-24T13:02:04.618Z,95143.00
2023-05-24T13:03:04.643Z,95143.00
2023-05-24T13:04:04.572Z,95145.00
2023-05-24T13:05:04.605Z,95143.00
2023-05-24T13:06:04.593Z,95143.00
2023-05-24T13:07:04.567Z,95152.00
2023-05-24T13:08:04.542Z,95152.00
2023-05-24T13:09:04.548Z,95143.00
2023-05-24T13:10:04.548Z,95143.00
2023-05-24T13:11:04.561Z,95143.00
2023-05-24T13:12:04.520Z,95143.00
2023-05-24T13:13:04.602Z,95139.00
2023-05-24T13:14:04.535Z,95143.00
2023-05-24T13:15:04.522Z,95143.00
2023-05-24T13:16:04.529Z,95143.00
2023-05-24T13:17:04.515Z,95152.00
2023-05-24T13:18:04.568Z,95143.00
2023-05-24T13:19:04.519Z,95145.00
2023-05-24T13:20:04.543Z,95143.00
2023-05-24T13:21:04.557Z,95154.00
2023-05-24T13:22:04.599Z,95152.00
2023-05-24T13:23:04.476Z,95154.00
2023-05-24T13:24:04.523Z,95152.00
2023-05-24T13:25:04.535Z,95154.00
2023-05-24T13:26:04.635Z,95154.00
2023-05-24T13:27:04.545Z,95154.00
2023-05-24T13:28:04.451Z,95152.00
2023-05-24T13:30:04.475Z,95154.00
2023-05-24T13:31:04.456Z,95154.00
2023-05-24T13:32:04.954Z,95145.00
2023-05-24T13:33:04.458Z,95145.00
2023-05-24T13:34:04.429Z,95152.00
2023-05-24T13:36:05.430Z,95152.00
2023-05-24T13:37:04.362Z,95154.00
2023-05-24T13:38:04.378Z,95152.00
2023-05-24T13:39:13.996Z,95154.00
2023-05-24T13:40:05.486Z,95158.00
2023-05-24T13:41:04.419Z,95160.00
2023-05-24T13:42:04.363Z,95154.00
2023-05-24T13:43:04.339Z,95160.00
2023-05-24T13:44:04.320Z,95156.00
2023-05-24T13:45:04.274Z,95160.00
2023-05-24T13:46:04.343Z,95158.00
2023-05-24T13:47:04.501Z,95166.00
2023-05-24T13:47:41.318Z,95145.00
2023-05-24T13:48:04.386Z,95162.00
2023-05-24T13:49:04.417Z,95164.00
2023-05-24T13:50:04.287Z,95162.00
2023-05-24T13:51:04.299Z,95164.00
2023-05-24T13:52:04.417Z,95168.00
2023-05-24T13:53:04.351Z,95168.00
2023-05-24T13:54:04.466Z,95166.00
2023-05-24T13:55:04.399Z,95168.00
2023-05-24T13:56:04.427Z,95170.00
2023-05-24T13:57:04.946Z,95170.00
2023-05-24T13:58:04.472Z,95172.00
2023-05-24T13:59:04.776Z,95170.00
2023-05-24T14:00:04.545Z,95172.00
2023-05-24T14:01:05.382Z,95174.00
2023-05-24T14:02:05.045Z,95176.00
2023-05-24T14:03:04.620Z,95178.00
2023-05-24T14:04:04.616Z,95176.00
2023-05-24T14:05:21.687Z,95176.00
2023-05-24T14:06:05.751Z,95178.00
2023-05-24T14:07:04.927Z,95174.00
2023-05-24T14:08:04.646Z,95178.00
2023-05-24T14:09:04.650Z,95178.00
2023-05-24T14:10:04.629Z,95178.00
2023-05-24T14:11:04.650Z,95178.00
2023-05-24T14:12:04.955Z,95178.00
2023-05-24T14:13:28.911Z,95174.00
2023-05-24T14:14:43.162Z,95174.00
2023-05-24T14:15:05.606Z,95176.00
2023-05-24T14:16:05.417Z,95174.00
2023-05-24T14:17:05.453Z,95176.00
2023-05-24T14:18:04.603Z,95174.00
2023-05-24T14:19:04.568Z,95172.00
2023-05-24T14:20:04.529Z,95170.00
2023-05-24T14:21:04.531Z,95170.00
2023-05-24T14:22:04.970Z,95170.00
2023-05-24T14:23:04.536Z,95174.00
2023-05-24T14:24:04.525Z,95176.00
2023-05-24T14:25:04.499Z,95172.00
2023-05-24T14:26:04.526Z,95174.00
2023-05-24T14:27:04.926Z,95174.00
2023-05-24T14:28:04.537Z,95176.00
2023-05-24T14:29:04.558Z,95176.00
2023-05-24T14:30:04.595Z,95180.00
2023-05-24T14:31:04.667Z,95178.00
2023-05-24T14:32:04.729Z,95178.00
2023-05-24T14:33:04.905Z,95176.00
2023-05-24T14:34:04.779Z,95176.00
2023-05-24T14:35:04.815Z,95182.00
2023-05-24T14:36:04.808Z,95178.00
2023-05-24T14:37:04.898Z,95178.00
2023-05-24T14:38:04.848Z,95178.00
2023-05-24T14:39:04.906Z,95178.00
2023-05-24T14:40:05.012Z,95178.00
2023-05-24T14:41:04.944Z,95180.00
2023-05-24T14:42:05.464Z,95182.00
2023-05-24T14:43:05.001Z,95180.00
2023-05-24T14:44:05.041Z,95182.00
2023-05-24T14:45:05.092Z,95180.00
2023-05-24T14:46:05.122Z,95180.00
2023-05-24T14:47:05.431Z,95178.00
2023-05-24T14:48:05.191Z,95180.00
2023-05-24T14:49:05.208Z,95178.00
2023-05-24T14:50:05.914Z,95182.00
2023-05-24T14:51:05.300Z,95176.00
2023-05-24T14:52:05.431Z,95178.00
2023-05-24T14:53:05.283Z,95178.00
2023-05-24T14:54:05.338Z,95174.00
2023-05-24T14:55:05.366Z,95176.00
2023-05-24T14:56:05.441Z,95174.00
2023-05-24T14:57:05.449Z,95174.00
2023-05-24T14:58:05.442Z,95180.00
2023-05-24T14:59:05.453Z,95176.00
2023-05-24T15:00:05.534Z,95176.00
2023-05-24T15:01:05.536Z,95180.00
2023-05-24T15:02:05.914Z,95182.00
2023-05-24T15:03:05.644Z,95182.00
2023-05-24T15:04:05.623Z,95186.00
2023-05-24T15:05:05.641Z,95184.00
2023-05-24T15:06:05.644Z,95190.00
2023-05-24T15:07:05.668Z,95188.00
2023-05-24T15:08:05.768Z,95186.00
2023-05-24T15:09:05.701Z,95184.00
2023-05-24T15:10:05.790Z,95188.00
2023-05-24T15:11:05.756Z,95184.00
2023-05-24T15:12:06.022Z,95186.00
2023-05-24T15:13:05.830Z,95188.00
2023-05-24T15:14:05.896Z,95190.00
2023-05-24T15:15:05.847Z,95190.00
2023-05-24T15:16:05.925Z,95184.00
2023-05-24T15:17:05.976Z,95182.00
2023-05-24T15:18:06.024Z,95180.00
2023-05-24T15:19:05.990Z,95182.00
2023-05-24T15:20:06.021Z,95184.00
2023-05-24T15:21:06.031Z,95184.00
2023-05-24T15:22:06.475Z,95188.00
2023-05-24T15:23:06.068Z,95186.00
2023-05-24T15:24:06.107Z,95186.00
2023-05-24T15:25:06.135Z,95188.00
2023-05-24T15:26:06.145Z,95186.00
2023-05-24T15:27:06.433Z,95186.00
2023-05-24T15:28:06.253Z,95190.00
2023-05-24T15:29:06.264Z,95186.00
2023-05-24T15:30:06.295Z,95188.00
2023-05-24T15:31:06.297Z,95188.00
2023-05-24T15:32:06.447Z,95184.00
2023-05-24T15:33:06.383Z,95180.00
2023-05-24T15:34:06.416Z,95178.00
2023-05-24T15:35:06.433Z,95176.00
2023-05-24T15:36:06.467Z,95176.00
2023-05-24T15:37:06.993Z,95178.00
2023-05-24T15:38:06.555Z,95178.00
2023-05-24T15:39:06.558Z,95174.00
2023-05-24T15:40:06.526Z,95176.00
2023-05-24T15:41:06.593Z,95176.00
2023-05-24T15:42:06.963Z,95178.00
2023-05-24T15:43:06.627Z,95178.00
2023-05-24T15:44:06.622Z,95174.00
2023-05-24T15:45:06.682Z,95166.00
2023-05-24T15:46:06.733Z,95174.00
2023-05-24T15:47:06.981Z,95174.00
2023-05-24T15:48:06.747Z,95172.00
2023-05-24T15:49:06.779Z,95172.00
2023-05-24T15:50:06.785Z,95172.00
2023-05-24T15:51:58.090Z,95174.00
2023-05-24T15:52:08.002Z,95176.00
2023-05-24T15:53:06.852Z,95174.00
2023-05-24T15:54:06.811Z,95178.00
2023-05-24T15:55:06.778Z,95176.00
2023-05-24T15:56:06.794Z,95172.00
2023-05-24T15:57:07.472Z,95172.00
2023-05-24T15:58:06.758Z,95170.00
2023-05-24T15:59:06.804Z,95170.00
2023-05-24T16:00:06.760Z,95170.00
2023-05-24T16:01:06.759Z,95168.00
2023-05-24T16:02:06.751Z,95170.00
2023-05-24T16:03:06.875Z,95170.00
2023-05-24T16:04:06.778Z,95172.00
2023-05-24T16:05:06.735Z,95170.00
2023-05-24T16:06:06.705Z,95170.00
2023-05-24T16:07:06.721Z,95166.00
2023-05-24T16:08:06.727Z,95170.00
2023-05-24T16:09:06.729Z,95168.00
2023-05-24T16:10:06.774Z,95162.00
2023-05-24T16:11:06.785Z,95168.00
2023-05-24T16:12:07.292Z,95168.00
2023-05-24T16:13:06.851Z,95170.00
2023-05-24T16:14:06.904Z,95164.00
2023-05-24T16:15:06.913Z,95166.00
2023-05-24T16:16:06.988Z,95166.00
2023-05-24T16:17:07.018Z,95168.00
2023-05-24T16:18:07.021Z,95168.00
2023-05-24T16:19:07.013Z,95166.00
2023-05-24T16:20:07.064Z,95166.00
2023-05-24T16:21:07.094Z,95166.00
2023-05-24T16:22:07.116Z,95164.00
2023-05-24T16:23:07.125Z,95166.00
2023-05-24T16:24:07.132Z,95170.00
2023-05-24T16:25:07.181Z,95168.00
2023-05-24T16:26:07.194Z,95166.00
2023-05-24T16:27:07.187Z,95170.00
2023-05-24T16:28:07.453Z,95170.00
2023-05-24T16:29:07.267Z,95168.00
2023-05-24T16:30:07.297Z,95172.00
2023-05-24T16:31:07.334Z,95170.00
2023-05-24T16:32:07.478Z,95168.00
2023-05-24T16:33:07.489Z,95168.00
2023-05-24T16:34:07.466Z,95168.00
2023-05-24T16:35:07.423Z,95168.00
2023-05-24T16:36:07.426Z,95168.00
2023-05-24T16:37:07.468Z,95166.00
2023-05-24T16:38:07.960Z,95164.00
2023-05-24T16:39:07.534Z,95162.00
2023-05-24T16:40:07.514Z,95168.00
2023-05-24T16:41:07.540Z,95162.00
2023-05-24T16:42:07.616Z,95166.00
2023-05-24T16:43:07.578Z,95162.00
2023-05-24T16:44:07.620Z,95156.00
2023-05-24T16:45:07.669Z,95162.00
2023-05-24T16:46:07.715Z,95166.00
2023-05-24T16:47:07.839Z,95168.00
2023-05-24T16:48:07.851Z,95168.00
2023-05-24T16:49:07.755Z,95172.00
2023-05-24T16:50:07.789Z,95170.00
2023-05-24T16:51:07.825Z,95172.00
2023-05-24T16:52:07.822Z,95172.00
2023-05-24T16:53:07.994Z,95168.00
2023-05-24T16:54:07.895Z,95168.00
2023-05-24T16:55:07.969Z,95168.00
2023-05-24T16:56:07.955Z,95170.00
2023-05-24T16:57:08.039Z,95170.00
2023-05-24T16:58:08.036Z,95168.00
2023-05-24T16:59:08.029Z,95170.00
2023-05-24T17:00:08.089Z,95168.00
2023-05-24T17:01:08.149Z,95170.00
2023-05-24T17:02:08.096Z,95166.00
2023-05-24T17:03:08.246Z,95166.00
2023-05-24T17:04:08.237Z,95168.00
2023-05-24T17:05:08.200Z,95166.00
2023-05-24T17:06:08.179Z,95170.00
2023-05-24T17:07:08.190Z,95168.00
2023-05-24T17:08:08.247Z,95172.00
2023-05-24T17:09:08.283Z,95170.00
2023-05-24T17:10:08.300Z,95172.00
2023-05-24T17:11:08.322Z,95174.00
2023-05-24T17:12:08.344Z,95174.00
2023-05-24T17:13:08.336Z,95176.00
2023-05-24T17:14:08.350Z,95176.00
2023-05-24T17:15:08.409Z,95176.00
2023-05-24T17:16:08.464Z,95178.00
2023-05-24T17:17:09.929Z,95178.00
2023-05-24T17:18:08.452Z,95174.00
2023-05-24T17:19:08.438Z,95176.00
2023-05-24T17:20:08.530Z,95178.00
2023-05-24T17:21:08.410Z,95174.00
2023-05-24T17:22:08.396Z,95176.00
2023-05-24T17:23:08.516Z,95176.00
2023-05-24T17:24:08.425Z,95176.00
2023-05-24T17:25:08.404Z,95176.00
2023-05-24T17:26:08.439Z,95174.00
2023-05-24T17:27:08.375Z,95176.00
2023-05-24T17:28:08.516Z,95180.00
2023-05-24T17:29:08.357Z,95176.00
2023-05-24T17:30:08.353Z,95180.00
2023-05-24T17:31:08.353Z,95182.00
2023-05-24T17:32:08.359Z,95184.00
2023-05-24T17:33:08.595Z,95182.00
2023-05-24T17:34:08.319Z,95186.00
2023-05-24T17:35:08.295Z,95178.00
2023-05-24T17:36:08.291Z,95186.00
2023-05-24T17:37:08.304Z,95190.00
2023-05-24T17:38:08.530Z,95186.00
2023-05-24T17:39:08.286Z,95192.00
2023-05-24T17:40:08.278Z,95192.00
2023-05-24T17:41:09.006Z,95192.00
2023-05-24T17:42:08.280Z,95192.00
2023-05-24T17:43:08.503Z,95182.00
2023-05-24T17:44:08.289Z,95186.00
2023-05-24T17:45:08.288Z,95192.00
2023-05-24T17:46:08.374Z,95192.00
2023-05-24T17:47:08.290Z,95190.00
2023-05-24T17:48:08.297Z,95192.00
2023-05-24T17:49:08.222Z,95194.00
2023-05-24T17:50:08.196Z,95194.00
2023-05-24T17:51:08.284Z,95192.00
2023-05-24T17:52:08.209Z,95192.00
2023-05-24T17:53:16.004Z,95198.00
2023-05-24T17:54:09.188Z,95194.00
2023-05-24T17:55:08.220Z,95192.00
2023-05-24T17:56:08.171Z,95192.00
2023-05-24T17:57:08.187Z,95192.00
2023-05-24T17:58:08.488Z,95192.00
2023-05-24T17:59:08.137Z,95196.00
2023-05-24T18:00:08.151Z,95196.00
2023-05-24T18:01:08.248Z,95201.00
2023-05-24T18:02:08.116Z,95199.00
2023-05-24T18:03:08.494Z,95199.00
2023-05-24T18:04:08.802Z,95201.00
2023-05-24T18:05:08.168Z,95201.00
2023-05-24T18:06:08.126Z,95205.00
2023-05-24T18:07:08.093Z,95205.00
2023-05-24T18:08:08.107Z,95209.00
2023-05-24T18:09:08.077Z,95203.00
2023-05-24T18:10:08.174Z,95205.00
2023-05-24T18:11:08.213Z,95205.00
2023-05-24T18:12:08.159Z,95207.00
2023-05-24T18:13:08.510Z,95209.00
2023-05-24T18:14:08.239Z,95213.00
2023-05-24T18:15:08.226Z,95213.00
2023-05-24T18:16:08.274Z,95215.00
2023-05-24T18:17:08.314Z,95217.00
2023-05-24T18:18:08.605Z,95217.00
2023-05-24T18:19:08.351Z,95215.00
2023-05-24T18:20:08.399Z,95211.00
2023-05-24T18:21:08.353Z,95207.00
2023-05-24T18:22:08.413Z,95205.00
2023-05-24T18:23:08.414Z,95207.00
2023-05-24T18:24:08.416Z,95207.00
2023-05-24T18:25:08.475Z,95207.00
2023-05-24T18:26:08.496Z,95207.00
2023-05-24T18:27:08.496Z,95205.00
2023-05-24T18:28:08.513Z,95207.00
2023-05-24T18:29:08.510Z,95209.00
2023-05-24T18:30:08.570Z,95207.00
2023-05-24T18:31:08.746Z,95205.00
2023-05-24T18:32:08.649Z,95205.00
2023-05-24T18:33:09.231Z,95205.00
2023-05-24T18:34:08.670Z,95203.00
2023-05-24T18:35:08.660Z,95205.00
2023-05-24T18:36:08.672Z,95199.00
2023-05-24T18:37:08.708Z,95201.00
2023-05-24T18:38:09.024Z,95201.00
2023-05-24T18:39:08.800Z,95199.00
2023-05-24T18:40:08.795Z,95201.00
2023-05-24T18:41:08.794Z,95201.00
2023-05-24T18:42:08.805Z,95203.00
2023-05-24T18:43:09.078Z,95207.00
2023-05-24T18:44:08.856Z,95205.00
2023-05-24T18:45:08.878Z,95203.00
2023-05-24T18:46:08.949Z,95203.00
2023-05-24T18:47:08.933Z,95207.00
2023-05-24T18:48:09.105Z,95205.00
2023-05-24T18:49:08.958Z,95205.00
2023-05-24T18:50:08.937Z,95207.00
2023-05-24T18:51:08.991Z,95209.00
2023-05-24T18:52:08.989Z,95213.00
2023-05-24T18:53:09.545Z,95211.00
2023-05-24T18:54:09.057Z,95215.00
2023-05-24T18:55:09.039Z,95213.00
2023-05-24T18:56:09.065Z,95215.00
2023-05-24T18:57:09.117Z,95215.00
2023-05-24T18:58:09.557Z,95217.00
2023-05-24T18:59:10.900Z,95219.00
2023-05-24T19:00:09.128Z,95221.00
2023-05-24T19:01:09.169Z,95223.00
2023-05-24T19:02:09.137Z,95227.00
2023-05-24T19:03:09.543Z,95227.00
2023-05-24T19:04:09.115Z,95227.00
2023-05-24T19:05:09.069Z,95227.00
2023-05-24T19:06:09.074Z,95229.00
2023-05-24T19:07:09.097Z,95233.00
2023-05-24T19:08:09.554Z,95233.00
2023-05-24T19:09:09.043Z,95233.00
2023-05-24T19:10:09.058Z,95237.00
2023-05-24T19:11:09.057Z,95235.00
2023-05-24T19:12:09.019Z,95237.00
2023-05-24T19:13:09.545Z,95227.00
2023-05-24T19:14:09.038Z,95239.00
2023-05-24T19:15:09.044Z,95239.00
2023-05-24T19:16:09.046Z,95239.00
2023-05-24T19:17:09.009Z,95243.00
2023-05-24T19:18:09.088Z,95246.00
2023-05-24T19:19:09.011Z,95245.00
2023-05-24T19:20:09.073Z,95245.00
2023-05-24T19:21:08.975Z,95243.00
2023-05-24T19:22:08.950Z,95246.00
2023-05-24T19:23:09.023Z,95245.00
2023-05-24T19:24:08.947Z,95248.00
2023-05-24T19:25:08.953Z,95248.00
2023-05-24T19:26:08.932Z,95250.00
2023-05-24T19:27:08.937Z,95248.00
2023-05-24T19:28:09.037Z,95246.00
2023-05-24T19:29:09.565Z,95246.00
2023-05-24T19:30:08.935Z,95248.00
2023-05-24T19:31:08.897Z,95246.00
2023-05-24T19:32:08.990Z,95250.00
2023-05-24T19:33:09.080Z,95250.00
2023-05-24T19:34:08.861Z,95250.00
2023-05-24T19:35:08.884Z,95252.00
2023-05-24T19:36:10.641Z,95256.00
2023-05-24T19:37:08.889Z,95256.00
2023-05-24T19:38:09.045Z,95258.00
2023-05-24T19:39:08.853Z,95260.00
2023-05-24T19:40:08.857Z,95258.00
2023-05-24T19:41:08.861Z,95262.00
2023-05-24T19:42:08.819Z,95262.00
2023-05-24T19:43:09.041Z,95260.00
2023-05-24T19:44:08.802Z,95266.00
2023-05-24T19:45:08.797Z,95268.00
2023-05-24T19:46:08.862Z,95264.00
2023-05-24T19:47:08.795Z,95266.00
2023-05-24T19:48:08.839Z,95264.00
2023-05-24T19:49:08.924Z,95258.00
2023-05-24T19:50:09.002Z,95260.00
2023-05-24T19:51:09.043Z,95262.00
2023-05-24T19:52:09.094Z,95260.00
2023-05-24T19:53:09.545Z,95262.00
2023-05-24T19:54:09.217Z,95264.00
2023-05-24T19:55:09.254Z,95266.00
2023-05-24T19:56:09.296Z,95266.00
2023-05-24T19:57:09.392Z,95268.00
2023-05-24T19:58:09.452Z,95264.00
2023-05-24T19:59:09.500Z,95264.00
2023-05-24T20:00:09.560Z,95266.00
2023-05-24T20:01:09.680Z,95266.00
2023-05-24T20:02:09.653Z,95264.00
2023-05-24T20:03:10.112Z,95264.00
2023-05-24T20:04:09.833Z,95264.00
2023-05-24T20:05:09.859Z,95262.00
2023-05-24T20:06:09.903Z,95264.00
2023-05-24T20:07:09.942Z,95262.00
2023-05-24T20:08:10.018Z,95264.00
2023-05-24T20:09:09.991Z,95264.00
2023-05-24T20:10:09.940Z,95264.00
2023-05-24T20:11:09.953Z,95264.00
2023-05-24T20:12:09.961Z,95266.00
2023-05-24T20:13:10.038Z,95264.00
2023-05-24T20:14:09.912Z,95264.00
2023-05-24T20:15:09.919Z,95258.00
2023-05-24T20:16:09.984Z,95258.00
2023-05-24T20:17:09.935Z,95262.00
2023-05-24T20:18:10.118Z,95258.00
2023-05-24T20:19:09.952Z,95258.00
2023-05-24T20:20:09.985Z,95262.00
2023-05-24T20:21:09.954Z,95258.00
2023-05-24T20:22:09.975Z,95260.00
2023-05-24T20:23:10.048Z,95260.00
2023-05-24T20:24:09.942Z,95262.00
2023-05-24T20:25:10.004Z,95262.00
2023-05-24T20:26:10.010Z,95262.00
2023-05-24T20:27:10.011Z,95262.00
2023-05-24T20:28:21.674Z,95260.00
2023-05-24T20:29:11.012Z,95258.00
2023-05-24T20:30:09.979Z,95256.00
2023-05-24T20:31:10.027Z,95260.00
2023-05-24T20:32:09.970Z,95260.00
2023-05-24T20:33:09.976Z,95258.00
2023-05-24T20:34:09.943Z,95260.00
2023-05-24T20:35:09.951Z,95260.00
2023-05-24T20:36:09.963Z,95258.00
2023-05-24T20:37:09.927Z,95260.00
2023-05-24T20:38:09.898Z,95258.00
2023-05-24T20:39:09.937Z,95260.00
2023-05-24T20:40:09.916Z,95260.00
2023-05-24T20:41:09.887Z,95260.00
2023-05-24T20:42:09.898Z,95260.00
2023-05-24T20:43:09.888Z,95262.00
2023-05-24T20:44:09.914Z,95260.00
2023-05-24T20:45:09.910Z,95262.00
2023-05-24T20:46:09.996Z,95262.00
2023-05-24T20:47:09.868Z,95258.00
2023-05-24T20:48:09.925Z,95256.00
2023-05-24T20:49:09.869Z,95258.00
2023-05-24T20:50:09.894Z,95258.00
2023-05-24T20:51:09.928Z,95258.00
2023-05-24T20:52:09.939Z,95256.00
2023-05-24T20:53:10.075Z,95258.00
2023-05-24T20:54:10.000Z,95256.00
2023-05-24T20:55:10.001Z,95256.00
2023-05-24T20:56:10.029Z,95258.00
2023-05-24T20:57:10.086Z,95256.00
2023-05-24T20:58:10.071Z,95258.00
2023-05-24T20:59:10.116Z,95258.00
2023-05-24T21:00:10.154Z,95258.00
2023-05-24T21:01:10.238Z,95258.00
2023-05-24T21:02:10.252Z,95258.00
2023-05-24T21:03:10.470Z,95258.00
2023-05-24T21:04:10.287Z,95256.00
2023-05-24T21:05:10.287Z,95256.00
2023-05-24T21:06:10.349Z,95258.00
2023-05-24T21:07:10.362Z,95260.00
2023-05-24T21:08:10.388Z,95258.00
2023-05-24T21:09:10.393Z,95262.00
2023-05-24T21:10:10.444Z,95264.00
2023-05-24T21:11:10.485Z,95264.00
2023-05-24T21:12:10.489Z,95268.00
2023-05-24T21:13:10.527Z,95268.00
2023-05-24T21:14:10.572Z,95266.00
2023-05-24T21:15:10.572Z,95266.00
2023-05-24T21:16:10.616Z,95268.00
2023-05-24T21:17:10.770Z,95264.00
2023-05-24T21:18:10.733Z,95266.00
2023-05-24T21:19:10.737Z,95266.00
2023-05-24T21:20:10.783Z,95264.00
2023-05-24T21:21:10.790Z,95272.00
2023-05-24T21:22:10.813Z,95268.00
2023-05-24T21:23:10.865Z,95270.00
2023-05-24T21:24:10.917Z,95270.00
2023-05-24T21:25:10.936Z,95270.00
2023-05-24T21:26:10.963Z,95270.00
2023-05-24T21:27:11.004Z,95268.00
2023-05-24T21:28:11.069Z,95268.00
2023-05-24T21:29:11.080Z,95268.00
2023-05-24T21:30:11.166Z,95266.00
2023-05-24T21:31:11.191Z,95264.00
2023-05-24T21:32:11.208Z,95266.00
2023-05-24T21:33:11.269Z,95262.00
2023-05-24T21:34:11.284Z,95266.00
2023-05-24T21:35:11.332Z,95266.00
2023-05-24T21:36:11.398Z,95262.00
2023-05-24T21:37:11.443Z,95262.00
2023-05-24T21:38:11.562Z,95262.00
2023-05-24T21:39:11.536Z,95262.00
2023-05-24T21:40:11.578Z,95262.00
2023-05-24T21:41:11.649Z,95260.00
2023-05-24T21:42:11.731Z,95262.00
2023-05-24T21:43:11.724Z,95262.00
2023-05-24T21:44:11.756Z,95266.00
2023-05-24T21:45:11.852Z,95264.00
2023-05-24T21:46:11.883Z,95264.00
2023-05-24T21:47:11.904Z,95266.00
2023-05-24T21:48:12.086Z,95270.00
2023-05-24T21:49:11.966Z,95268.00
2023-05-24T21:50:12.029Z,95270.00
2023-05-24T21:51:12.079Z,95268.00
2023-05-24T21:52:12.130Z,95270.00
2023-05-24T21:53:12.154Z,95272.00
2023-05-24T21:54:12.210Z,95272.00
2023-05-24T21:55:12.275Z,95274.00
2023-05-24T21:56:12.330Z,95276.00
2023-05-24T21:57:12.332Z,95280.00
2023-05-24T21:58:12.393Z,95282.00
2023-05-24T21:59:12.468Z,95284.00
2023-05-24T22:00:12.447Z,95282.00
2023-05-24T22:01:12.507Z,95278.00
2023-05-24T22:02:12.645Z,95276.00
2023-05-24T22:03:13.145Z,95274.00
2023-05-24T22:04:12.786Z,95274.00
2023-05-24T22:05:12.707Z,95272.00
2023-05-24T22:06:12.745Z,95274.00
2023-05-24T22:07:12.816Z,95272.00
2023-05-24T22:08:20.154Z,95274.00
2023-05-24T22:09:12.821Z,95272.00
2023-05-24T22:10:12.869Z,95272.00
2023-05-24T22:11:12.853Z,95272.00
2023-05-24T22:12:12.845Z,95274.00
2023-05-24T22:13:12.859Z,95272.00
2023-05-24T22:14:12.834Z,95274.00
2023-05-24T22:15:12.822Z,95276.00
2023-05-24T22:16:12.864Z,95278.00
2023-05-24T22:17:12.774Z,95282.00
2023-05-24T22:18:13.140Z,95280.00
2023-05-24T22:19:14.469Z,95286.00
2023-05-24T22:20:12.836Z,95282.00
2023-05-24T22:21:12.738Z,95282.00
2023-05-24T22:22:12.787Z,95284.00
2023-05-24T22:23:12.818Z,95286.00
2023-05-24T22:24:12.897Z,95288.00
2023-05-24T22:25:12.931Z,95286.00
2023-05-24T22:26:12.987Z,95286.00
2023-05-24T22:27:13.059Z,95284.00
2023-05-24T22:28:13.093Z,95284.00
2023-05-24T22:29:13.133Z,95282.00
2023-05-24T22:30:13.182Z,95276.00
2023-05-24T22:31:13.288Z,95274.00
2023-05-24T22:32:13.302Z,95274.00
2023-05-24T22:33:13.297Z,95274.00
2023-05-24T22:34:13.388Z,95274.00
2023-05-24T22:35:13.426Z,95276.00
2023-05-24T22:36:13.468Z,95278.00
2023-05-24T22:37:13.513Z,95276.00
2023-05-24T22:38:13.579Z,95278.00
2023-05-24T22:39:13.619Z,95278.00
2023-05-24T22:40:13.654Z,95276.00
2023-05-24T22:41:13.737Z,95276.00
2023-05-24T22:42:13.789Z,95276.00
2023-05-24T22:43:13.855Z,95274.00
2023-05-24T22:44:13.895Z,95274.00
2023-05-24T22:45:13.960Z,95274.00
2023-05-24T22:46:14.006Z,95276.00
2023-05-24T22:47:14.092Z,95272.00
2023-05-24T22:48:14.165Z,95274.00
2023-05-24T22:49:14.171Z,95272.00
2023-05-24T22:50:14.224Z,95272.00
2023-05-24T22:51:14.288Z,95270.00
2023-05-24T22:52:14.326Z,95266.00
2023-05-24T22:53:14.402Z,95266.00
2023-05-24T22:54:14.484Z,95264.00
2023-05-24T22:55:14.544Z,95266.00
2023-05-24T22:56:14.598Z,95266.00
2023-05-24T22:57:14.628Z,95264.00
2023-05-24T22:58:14.719Z,95266.00
2023-05-24T22:59:14.768Z,95264.00
2023-05-24T23:00:14.819Z,95266.00
2023-05-24T23:01:14.924Z,95264.00
2023-05-24T23:02:14.905Z,95262.00
2023-05-24T23:03:15.062Z,95262.00
2023-05-24T23:04:20.955Z,95262.00
2023-05-24T23:05:16.102Z,95266.00
2023-05-24T23:06:15.001Z,95266.00
2023-05-24T23:07:15.023Z,95268.00
2023-05-24T23:08:15.021Z,95264.00
2023-05-24T23:09:15.026Z,95266.00
2023-05-24T23:10:14.995Z,95270.00
2023-05-24T23:11:15.003Z,95272.00
2023-05-24T23:12:15.016Z,95270.00
2023-05-24T23:13:15.014Z,95274.00
2023-05-24T23:14:15.050Z,95274.00
2023-05-24T23:15:15.118Z,95276.00
2023-05-24T23:16:15.183Z,95274.00
2023-05-24T23:17:15.378Z,95276.00
2023-05-24T23:18:15.328Z,95276.00
2023-05-24T23:19:15.371Z,95278.00
2023-05-24T23:20:15.475Z,95276.00
2023-05-24T23:21:15.453Z,95274.00
2023-05-24T23:22:15.519Z,95272.00
2023-05-24T23:23:15.543Z,95270.00